createdAt,value
2018-03-30T00:00:55.143Z,80.75
2018-03-30T00:03:24.405Z,80.50
2018-03-30T00:05:53.601Z,80.61
2018-03-30T00:08:22.846Z,80.56
2018-03-30T00:10:54.818Z,80.51
2018-03-30T00:13:24.984Z,80.76
2018-03-30T00:15:54.778Z,80.42
2018-03-30T00:18:24.006Z,80.56
2018-03-30T00:20:53.977Z,80.23
2018-03-30T00:23:23.254Z,80.14
2018-03-30T00:25:52.502Z,79.97
2018-03-30T00:28:21.711Z,80.14
2018-03-30T00:30:51.696Z,80.05
2018-03-30T00:33:20.904Z,80.16
2018-03-30T00:35:50.094Z,80.33
2018-03-30T00:38:19.334Z,80.04
2018-03-30T00:40:48.732Z,79.88
2018-03-30T00:43:17.957Z,80.06
2018-03-30T00:45:47.158Z,80.00
2018-03-30T00:48:16.339Z,80.04
2018-03-30T00:50:46.305Z,80.13
2018-03-30T00:53:34.043Z,80.14
2018-03-30T00:56:04.051Z,79.93
2018-03-30T00:58:33.263Z,79.94
2018-03-30T01:01:03.262Z,79.78
2018-03-30T01:03:33.282Z,79.73
2018-03-30T01:06:02.508Z,80.03
2018-03-30T01:08:31.751Z,79.75
2018-03-30T01:11:00.962Z,79.62
2018-03-30T01:13:30.140Z,79.94
2018-03-30T01:15:59.406Z,79.75
2018-03-30T01:18:28.592Z,79.49
2018-03-30T01:20:57.809Z,79.34
2018-03-30T01:23:28.010Z,79.17
2018-03-30T01:25:57.987Z,79.63
2018-03-30T01:28:27.292Z,79.50
2018-03-30T01:30:56.622Z,79.18
2018-03-30T01:33:26.625Z,79.35
2018-03-30T01:35:56.609Z,79.29
2018-03-30T01:38:25.826Z,79.09
2018-03-30T01:40:55.067Z,79.12
2018-03-30T01:43:24.321Z,78.94
2018-03-30T01:45:53.519Z,79.11
2018-03-30T01:48:22.748Z,78.92
2018-03-30T01:50:52.732Z,78.75
2018-03-30T01:53:21.929Z,78.72
2018-03-30T01:55:51.148Z,78.68
2018-03-30T01:58:21.122Z,78.47
2018-03-30T02:00:50.322Z,78.15
2018-03-30T02:03:19.522Z,78.30
2018-03-30T02:05:49.518Z,78.30
2018-03-30T02:08:18.730Z,78.18
2018-03-30T02:10:48.698Z,78.07
2018-03-30T02:13:18.689Z,78.02
2018-03-30T02:15:47.872Z,78.08
2018-03-30T02:18:17.101Z,77.75
2018-03-30T02:20:46.335Z,77.87
2018-03-30T02:23:15.819Z,77.65
2018-03-30T02:25:45.152Z,77.68
2018-03-30T02:28:14.364Z,77.62
2018-03-30T02:30:43.601Z,77.69
2018-03-30T02:33:13.608Z,77.78
2018-03-30T02:35:42.825Z,77.46
2018-03-30T02:38:12.803Z,77.26
2018-03-30T02:40:42.004Z,77.28
2018-03-30T02:43:11.212Z,77.27
2018-03-30T02:45:40.428Z,77.13
2018-03-30T02:48:10.422Z,77.35
2018-03-30T02:50:40.404Z,77.49
2018-03-30T02:53:09.632Z,76.72
2018-03-30T02:55:38.869Z,76.76
2018-03-30T02:58:08.075Z,76.60
2018-03-30T03:00:37.345Z,76.90
2018-03-30T03:03:07.417Z,76.54
2018-03-30T03:05:36.672Z,76.72
2018-03-30T03:08:05.918Z,76.58
2018-03-30T03:10:35.209Z,77.04
2018-03-30T03:13:04.450Z,76.81
2018-03-30T03:15:33.627Z,76.84
2018-03-30T03:18:02.879Z,76.29
2018-03-30T03:20:32.076Z,76.56
2018-03-30T03:23:01.290Z,76.66
2018-03-30T03:25:30.612Z,76.21
2018-03-30T03:27:59.805Z,76.41
2018-03-30T03:30:29.012Z,76.45
2018-03-30T03:32:58.323Z,76.50
2018-03-30T03:35:27.543Z,76.74
2018-03-30T03:37:56.741Z,76.58
2018-03-30T03:40:26.716Z,76.03
2018-03-30T03:42:55.936Z,76.22
2018-03-30T03:45:25.167Z,75.88
2018-03-30T03:47:54.366Z,75.76
2018-03-30T03:50:23.602Z,76.05
2018-03-30T03:52:52.815Z,75.97
2018-03-30T03:55:22.024Z,75.54
2018-03-30T03:57:51.270Z,75.38
2018-03-30T04:00:20.509Z,75.16
2018-03-30T04:02:49.720Z,75.38
2018-03-30T04:05:19.708Z,75.52
2018-03-30T04:07:49.009Z,75.14
2018-03-30T04:10:18.312Z,75.11
2018-03-30T04:12:47.495Z,75.35
2018-03-30T04:15:16.711Z,75.26
2018-03-30T04:17:45.939Z,74.97
2018-03-30T04:20:15.897Z,75.04
2018-03-30T04:22:45.119Z,75.27
2018-03-30T04:25:14.344Z,75.08
2018-03-30T04:27:44.328Z,75.18
2018-03-30T04:30:13.770Z,74.93
2018-03-30T04:32:43.232Z,75.11
2018-03-30T04:35:12.447Z,75.08
2018-03-30T04:37:42.531Z,74.89
2018-03-30T04:40:11.751Z,74.58
2018-03-30T04:42:41.787Z,74.62
2018-03-30T04:45:10.979Z,74.56
2018-03-30T04:47:40.962Z,74.89
2018-03-30T04:50:10.927Z,74.42
2018-03-30T04:52:40.932Z,74.50
2018-03-30T04:55:10.162Z,74.39
2018-03-30T04:57:39.364Z,74.20
2018-03-30T05:00:08.590Z,74.16
2018-03-30T05:02:37.827Z,74.24
2018-03-30T05:05:07.818Z,74.34
2018-03-30T05:07:37.140Z,74.53
2018-03-30T05:10:07.122Z,74.49
2018-03-30T05:12:37.148Z,74.66
2018-03-30T05:15:06.409Z,74.33
2018-03-30T05:17:35.610Z,74.64
2018-03-30T05:20:04.844Z,74.47
2018-03-30T05:22:34.035Z,74.53
2018-03-30T05:25:03.243Z,74.67
2018-03-30T05:27:32.451Z,74.39
2018-03-30T05:30:02.779Z,74.45
2018-03-30T05:32:32.743Z,74.78
2018-03-30T05:35:02.005Z,74.79
2018-03-30T05:37:32.038Z,74.77
2018-03-30T05:40:01.297Z,74.87
2018-03-30T05:42:30.496Z,74.89
2018-03-30T05:44:59.746Z,74.77
2018-03-30T05:47:28.936Z,74.75
2018-03-30T05:49:58.155Z,74.82
2018-03-30T05:52:27.352Z,75.06
2018-03-30T05:54:57.367Z,74.67
2018-03-30T05:57:27.371Z,74.72
2018-03-30T05:59:56.612Z,74.67
2018-03-30T06:02:25.871Z,74.77
2018-03-30T06:04:55.103Z,74.27
2018-03-30T06:07:24.431Z,74.08
2018-03-30T06:09:54.394Z,74.10
2018-03-30T06:12:23.659Z,73.96
2018-03-30T06:14:52.944Z,74.33
2018-03-30T06:17:22.159Z,74.31
2018-03-30T06:19:52.178Z,74.10
2018-03-30T06:22:21.494Z,74.15
2018-03-30T06:24:50.759Z,73.79
2018-03-30T06:27:20.791Z,73.51
2018-03-30T06:29:50.034Z,73.93
2018-03-30T06:32:19.413Z,73.54
2018-03-30T06:34:48.561Z,74.16
2018-03-30T06:37:17.830Z,73.73
2018-03-30T06:39:47.014Z,73.83
2018-03-30T06:42:16.250Z,73.97
2018-03-30T06:44:45.446Z,73.65
2018-03-30T06:47:14.739Z,73.57
2018-03-30T06:49:43.953Z,74.08
2018-03-30T06:52:13.271Z,73.27
2018-03-30T06:54:43.380Z,73.12
2018-03-30T06:57:12.575Z,72.18
2018-03-30T06:59:42.584Z,72.71
2018-03-30T07:02:12.802Z,72.29
2018-03-30T07:04:42.880Z,71.74
2018-03-30T07:07:12.058Z,71.27
2018-03-30T07:09:41.274Z,70.42
2018-03-30T07:12:10.463Z,70.31
2018-03-30T07:14:39.688Z,69.57
2018-03-30T07:17:09.311Z,69.05
2018-03-30T07:19:38.539Z,68.88
2018-03-30T07:22:07.756Z,68.76
2018-03-30T07:24:37.214Z,68.14
2018-03-30T07:27:06.410Z,68.28
2018-03-30T07:29:35.620Z,67.53
2018-03-30T07:32:05.597Z,67.20
2018-03-30T07:34:34.821Z,66.89
2018-03-30T07:37:04.794Z,66.33
2018-03-30T07:39:34.039Z,66.12
2018-03-30T07:42:03.348Z,66.02
2018-03-30T07:44:33.638Z,66.00
2018-03-30T07:47:02.908Z,65.10
2018-03-30T07:49:32.107Z,65.24
2018-03-30T07:52:01.343Z,64.81
2018-03-30T07:54:30.589Z,64.12
2018-03-30T07:56:59.821Z,63.78
2018-03-30T07:59:29.034Z,63.90
2018-03-30T08:01:58.258Z,62.59
2018-03-30T08:04:28.219Z,61.47
2018-03-30T08:06:57.503Z,62.28
2018-03-30T08:09:26.702Z,61.48
2018-03-30T08:11:55.908Z,60.76
2018-03-30T08:14:25.430Z,59.18
2018-03-30T08:16:54.598Z,59.85
2018-03-30T08:19:23.802Z,61.60
2018-03-30T08:21:53.982Z,60.81
2018-03-30T08:24:23.958Z,60.27
2018-03-30T08:26:53.177Z,58.83
2018-03-30T08:29:23.240Z,58.43
2018-03-30T08:31:53.246Z,58.22
2018-03-30T08:34:23.230Z,56.93
2018-03-30T08:36:52.456Z,57.41
2018-03-30T08:39:21.670Z,57.84
2018-03-30T08:41:50.880Z,57.37
2018-03-30T08:44:20.150Z,56.63
2018-03-30T08:46:50.120Z,55.29
2018-03-30T08:49:19.408Z,55.11
2018-03-30T08:51:48.617Z,55.20
2018-03-30T08:54:18.139Z,53.86
2018-03-30T08:56:49.110Z,54.10
2018-03-30T08:59:19.095Z,53.66
2018-03-30T09:01:49.113Z,55.22
2018-03-30T09:04:18.357Z,53.77
2018-03-30T09:06:47.533Z,54.33
2018-03-30T09:09:16.764Z,54.73
2018-03-30T09:11:45.993Z,53.37
2018-03-30T09:16:50.510Z,54.05
2018-03-30T09:19:19.794Z,51.05
2018-03-30T09:21:49.001Z,52.79
2018-03-30T09:24:18.201Z,51.80
2018-03-30T09:26:47.440Z,52.46
2018-03-30T09:29:16.731Z,51.30
2018-03-30T09:31:46.742Z,51.71
2018-03-30T09:34:15.945Z,50.07
2018-03-30T09:36:45.199Z,50.40
2018-03-30T09:39:14.426Z,49.70
2018-03-30T09:41:43.662Z,49.89
2018-03-30T09:44:13.663Z,49.67
2018-03-30T09:46:42.922Z,48.67
2018-03-30T09:49:12.145Z,50.12
2018-03-30T09:51:41.402Z,47.14
2018-03-30T09:54:10.618Z,48.03
2018-03-30T09:56:39.862Z,48.31
2018-03-30T09:59:09.844Z,47.77
2018-03-30T10:01:39.219Z,48.26
2018-03-30T10:04:09.438Z,48.37
2018-03-30T10:06:38.699Z,47.87
2018-03-30T10:09:07.940Z,46.81
2018-03-30T10:11:37.147Z,46.93
2018-03-30T10:14:06.355Z,46.74
2018-03-30T10:16:35.579Z,47.17
2018-03-30T10:19:05.600Z,48.60
2018-03-30T10:21:35.597Z,46.40
2018-03-30T10:24:04.819Z,47.08
2018-03-30T10:26:34.839Z,45.81
2018-03-30T10:29:04.068Z,47.06
2018-03-30T10:31:33.299Z,46.08
2018-03-30T10:34:02.542Z,47.14
2018-03-30T10:36:31.779Z,48.30
2018-03-30T10:39:01.085Z,48.30
2018-03-30T10:41:30.338Z,47.27
2018-03-30T10:43:59.578Z,47.21
2018-03-30T10:46:28.833Z,47.80
2018-03-30T10:48:58.065Z,49.12
2018-03-30T10:51:27.612Z,48.06
2018-03-30T10:53:57.625Z,48.05
2018-03-30T10:56:26.839Z,47.17
2018-03-30T10:58:56.835Z,47.27
2018-03-30T11:01:26.810Z,49.93
2018-03-30T11:03:56.046Z,47.68
2018-03-30T11:06:26.080Z,48.37
2018-03-30T11:08:56.097Z,46.15
2018-03-30T11:11:26.086Z,46.25
2018-03-30T11:13:55.318Z,46.94
2018-03-30T11:16:24.552Z,46.72
2018-03-30T11:18:53.821Z,45.00
2018-03-30T11:21:23.055Z,45.42
2018-03-30T11:23:52.327Z,44.89
2018-03-30T11:26:21.556Z,45.48
2018-03-30T11:28:50.814Z,46.64
2018-03-30T11:31:20.077Z,45.30
2018-03-30T11:33:49.321Z,45.91
2018-03-30T11:36:18.603Z,45.22
2018-03-30T11:38:47.816Z,45.03
2018-03-30T11:41:17.086Z,44.69
2018-03-30T11:43:47.106Z,44.30
2018-03-30T11:46:16.313Z,44.14
2018-03-30T11:48:46.280Z,44.39
2018-03-30T11:51:15.531Z,41.70
2018-03-30T11:53:44.776Z,43.59
2018-03-30T11:56:14.002Z,43.60
2018-03-30T11:58:44.089Z,44.38
2018-03-30T12:01:14.115Z,43.13
2018-03-30T12:03:44.136Z,42.38
2018-03-30T12:06:13.377Z,43.10
2018-03-30T12:08:42.583Z,42.42
2018-03-30T12:11:11.806Z,43.13
2018-03-30T12:13:41.011Z,43.21
2018-03-30T12:16:10.237Z,45.33
2018-03-30T12:18:39.474Z,45.25
2018-03-30T12:21:08.690Z,44.25
2018-03-30T12:23:37.943Z,43.85
2018-03-30T12:26:07.926Z,45.29
2018-03-30T12:28:37.155Z,44.77
2018-03-30T12:31:06.353Z,44.07
2018-03-30T12:33:36.338Z,44.70
2018-03-30T12:36:05.552Z,44.18
2018-03-30T12:38:34.797Z,43.13
2018-03-30T12:41:04.081Z,44.45
2018-03-30T12:43:34.387Z,44.23
2018-03-30T12:46:04.890Z,43.86
2018-03-30T12:48:34.689Z,44.49
2018-03-30T12:51:05.078Z,42.96
2018-03-30T12:53:36.444Z,43.25
2018-03-30T12:56:05.645Z,42.22
2018-03-30T12:58:34.871Z,42.38
2018-03-30T13:01:04.074Z,43.00
2018-03-30T13:03:33.318Z,41.95
2018-03-30T13:06:02.529Z,41.33
2018-03-30T13:08:32.609Z,41.28
2018-03-30T13:11:02.600Z,41.13
2018-03-30T13:13:32.609Z,41.23
2018-03-30T13:16:01.850Z,42.59
2018-03-30T13:18:31.039Z,42.40
2018-03-30T13:21:01.004Z,43.12
2018-03-30T13:23:30.242Z,42.54
2018-03-30T13:26:00.306Z,43.11
2018-03-30T13:28:29.676Z,42.23
2018-03-30T13:30:58.919Z,41.66
2018-03-30T13:33:28.144Z,42.19
2018-03-30T13:35:57.393Z,42.65
2018-03-30T13:38:26.607Z,44.35
2018-03-30T13:40:55.872Z,42.23
2018-03-30T13:43:25.136Z,42.60
2018-03-30T13:45:54.397Z,43.00
2018-03-30T13:48:23.631Z,43.25
2018-03-30T13:51:10.895Z,44.81
2018-03-30T13:53:43.020Z,43.60
2018-03-30T13:56:12.992Z,42.76
2018-03-30T13:58:47.643Z,43.29
2018-03-30T14:01:31.206Z,42.87
2018-03-30T14:04:11.547Z,43.83
2018-03-30T14:06:44.194Z,43.40
2018-03-30T14:09:31.969Z,43.59
2018-03-30T14:12:04.471Z,42.88
2018-03-30T14:14:33.728Z,43.77
2018-03-30T14:30:50.307Z,42.85
2018-03-30T14:33:20.318Z,43.33
2018-03-30T14:35:58.887Z,43.84
2018-03-30T14:38:46.577Z,44.07
2018-03-30T14:41:16.586Z,44.03
2018-03-30T14:43:46.541Z,44.87
2018-03-30T14:46:23.960Z,45.56
2018-03-30T14:48:55.641Z,45.36
2018-03-30T14:51:36.469Z,45.04
2018-03-30T14:54:08.959Z,45.15
2018-03-30T14:56:49.958Z,44.71
2018-03-30T14:59:25.091Z,45.40
2018-03-30T15:02:04.931Z,45.33
2018-03-30T15:05:00.887Z,45.04
2018-03-30T15:07:30.765Z,45.24
2018-03-30T15:10:34.206Z,45.99
2018-03-30T15:13:08.907Z,45.87
2018-03-30T15:16:00.502Z,43.97
2018-03-30T15:18:34.740Z,45.62
2018-03-30T15:34:39.918Z,46.88
2018-03-30T15:37:16.576Z,45.45
2018-03-30T15:39:56.543Z,45.80
2018-03-30T15:42:35.924Z,46.79
2018-03-30T15:45:28.387Z,45.35
2018-03-30T15:47:57.657Z,45.61
2018-03-30T15:50:26.882Z,46.77
2018-03-30T15:52:56.093Z,48.11
2018-03-30T15:55:25.325Z,46.57
2018-03-30T15:57:54.550Z,45.35
2018-03-30T16:00:23.791Z,45.67
2018-03-30T16:02:53.885Z,46.14
2018-03-30T16:05:23.104Z,45.66
2018-03-30T16:07:52.306Z,46.81
2018-03-30T16:10:23.071Z,45.98
2018-03-30T16:12:53.265Z,46.00
2018-03-30T16:15:22.519Z,46.13
2018-03-30T16:17:51.730Z,45.99
2018-03-30T16:20:20.852Z,45.28
2018-03-30T16:22:49.292Z,45.94
2018-03-30T16:25:17.661Z,45.68
2018-03-30T16:27:46.099Z,46.84
2018-03-30T16:30:15.232Z,47.26
2018-03-30T16:32:43.643Z,47.42
2018-03-30T16:35:12.014Z,46.05
2018-03-30T16:37:40.368Z,47.24
2018-03-30T16:40:08.768Z,46.32
2018-03-30T16:42:37.182Z,47.31
2018-03-30T16:45:06.360Z,48.14
2018-03-30T16:47:34.730Z,48.13
2018-03-30T16:50:03.206Z,46.99
2018-03-30T16:52:31.543Z,47.99
2018-03-30T16:54:59.934Z,48.01
2018-03-30T16:57:28.301Z,48.23
2018-03-30T16:59:56.690Z,48.59
2018-03-30T17:02:25.047Z,49.23
2018-03-30T17:04:53.441Z,48.91
2018-03-30T17:07:21.778Z,49.96
2018-03-30T17:09:50.926Z,48.94
2018-03-30T17:12:19.300Z,49.94
2018-03-30T17:14:47.686Z,50.32
2018-03-30T17:17:16.091Z,50.37
2018-03-30T17:19:44.795Z,50.12
2018-03-30T17:22:13.940Z,50.06
2018-03-30T17:24:42.331Z,49.88
2018-03-30T17:27:10.763Z,49.58
2018-03-30T17:29:39.135Z,50.06
2018-03-30T17:32:08.294Z,50.16
2018-03-30T17:34:36.640Z,50.63
2018-03-30T17:37:05.015Z,50.88
2018-03-30T17:39:33.452Z,50.44
2018-03-30T17:42:01.817Z,49.66
2018-03-30T17:44:30.180Z,50.89
2018-03-30T17:46:58.594Z,51.02
2018-03-30T17:49:26.935Z,51.03
2018-03-30T17:51:55.291Z,50.93
2018-03-30T17:54:23.670Z,51.05
2018-03-30T17:56:52.066Z,51.06
2018-03-30T17:59:20.426Z,51.62
2018-03-30T18:01:48.854Z,51.69
2018-03-30T18:04:18.024Z,51.10
2018-03-30T18:06:46.429Z,51.32
2018-03-30T18:09:15.586Z,50.68
2018-03-30T18:11:43.975Z,50.68
2018-03-30T18:14:12.383Z,50.82
2018-03-30T18:16:41.544Z,51.69
2018-03-30T18:19:09.917Z,52.14
2018-03-30T18:21:38.292Z,51.60
2018-03-30T18:24:06.695Z,52.29
2018-03-30T18:26:35.063Z,52.19
2018-03-30T18:29:03.448Z,52.31
2018-03-30T18:31:31.829Z,51.97
2018-03-30T18:34:00.209Z,52.85
2018-03-30T18:36:28.577Z,51.67
2018-03-30T18:38:56.988Z,51.65
2018-03-30T18:41:26.115Z,52.42
2018-03-30T18:43:54.562Z,52.43
2018-03-30T18:46:22.913Z,52.83
2018-03-30T18:48:51.279Z,52.26
2018-03-30T18:51:19.703Z,52.65
2018-03-30T18:53:48.066Z,52.37
2018-03-30T18:56:16.467Z,52.97
2018-03-30T18:58:45.123Z,52.63
2018-03-30T19:01:14.326Z,52.25
2018-03-30T19:03:42.666Z,52.58
2018-03-30T19:06:11.868Z,52.85
2018-03-30T19:08:40.500Z,52.62
2018-03-30T19:11:08.883Z,53.28
2018-03-30T19:13:37.253Z,54.20
2018-03-30T19:16:05.642Z,54.31
2018-03-30T19:18:34.006Z,56.08
2018-03-30T19:21:03.153Z,56.16
2018-03-30T19:23:32.262Z,56.47
2018-03-30T19:26:00.632Z,57.32
2018-03-30T19:28:29.011Z,56.65
2018-03-30T19:30:57.398Z,56.80
2018-03-30T19:33:25.791Z,57.74
2018-03-30T19:35:54.180Z,57.53
2018-03-30T19:38:23.310Z,58.58
2018-03-30T19:40:51.654Z,58.96
2018-03-30T19:43:20.795Z,59.09
2018-03-30T19:45:49.177Z,60.14
2018-03-30T19:48:17.518Z,59.87
2018-03-30T19:50:46.642Z,61.20
2018-03-30T19:53:15.014Z,61.33
2018-03-30T19:55:43.378Z,61.38
2018-03-30T19:58:11.764Z,60.69
2018-03-30T20:00:40.131Z,60.05
2018-03-30T20:03:08.519Z,59.89
2018-03-30T20:05:36.902Z,59.98
2018-03-30T20:08:05.299Z,60.27
2018-03-30T20:10:33.667Z,60.11
2018-03-30T20:13:02.062Z,60.17
2018-03-30T20:15:30.489Z,60.18
2018-03-30T20:17:59.643Z,61.15
2018-03-30T20:20:28.018Z,61.11
2018-03-30T20:22:56.404Z,61.11
2018-03-30T20:25:24.774Z,62.32
2018-03-30T20:27:53.123Z,62.22
2018-03-30T20:30:21.536Z,62.74
2018-03-30T20:32:49.910Z,63.49
2018-03-30T20:35:18.287Z,63.66
2018-03-30T20:37:46.703Z,64.12
2018-03-30T20:40:15.072Z,64.30
2018-03-30T20:42:44.225Z,64.99
2018-03-30T20:45:12.628Z,65.95
2018-03-30T20:47:40.982Z,66.75
2018-03-30T20:50:09.380Z,67.81
2018-03-30T20:52:37.751Z,68.80
2018-03-30T20:55:06.886Z,70.28
2018-03-30T20:57:36.039Z,71.38
2018-03-30T21:00:04.440Z,71.82
2018-03-30T21:02:32.807Z,72.01
2018-03-30T21:05:01.184Z,72.80
2018-03-30T21:07:29.564Z,73.13
2018-03-30T21:09:57.960Z,73.68
2018-03-30T21:12:26.336Z,73.80
2018-03-30T21:14:54.711Z,75.31
2018-03-30T21:17:23.063Z,77.10
2018-03-30T21:19:51.411Z,77.37
2018-03-30T21:22:19.800Z,77.75
2018-03-30T21:24:48.434Z,78.05
2018-03-30T21:27:17.619Z,78.28
2018-03-30T21:29:46.739Z,78.30
2018-03-30T21:32:15.124Z,78.97
2018-03-30T21:34:44.244Z,79.60
2018-03-30T21:37:12.668Z,79.98
2018-03-30T21:39:41.802Z,80.08
2018-03-30T21:42:10.945Z,80.47
2018-03-30T21:44:39.297Z,80.33
2018-03-30T21:47:08.520Z,80.48
2018-03-30T21:49:36.995Z,80.96
2018-03-30T21:52:05.351Z,81.42
2018-03-30T21:54:33.691Z,81.60
2018-03-30T21:57:02.818Z,81.78
2018-03-30T21:59:31.163Z,82.46
2018-03-30T22:02:00.303Z,82.38
2018-03-30T22:04:28.674Z,82.97
2018-03-30T22:06:57.050Z,83.43
2018-03-30T22:09:25.412Z,83.61
2018-03-30T22:11:53.750Z,83.53
2018-03-30T22:14:22.179Z,83.74
2018-03-30T22:16:50.558Z,83.74
2018-03-30T22:19:18.930Z,83.98
2018-03-30T22:21:47.592Z,84.38
2018-03-30T22:24:16.715Z,84.88
2018-03-30T22:26:45.052Z,84.97
2018-03-30T22:29:13.438Z,85.08
2018-03-30T22:31:42.557Z,85.29
2018-03-30T22:34:10.923Z,85.46
2018-03-30T22:36:39.322Z,85.23
2018-03-30T22:39:07.684Z,85.45
2018-03-30T22:41:36.842Z,85.44
2018-03-30T22:44:05.198Z,85.51
2018-03-30T22:46:33.537Z,85.78
2018-03-30T22:49:01.927Z,85.99
2018-03-30T22:51:30.274Z,85.97
2018-03-30T22:53:58.595Z,86.17
2018-03-30T22:56:26.962Z,86.28
2018-03-30T22:58:55.353Z,86.32
2018-03-30T23:01:23.712Z,86.60
2018-03-30T23:03:52.840Z,86.97
2018-03-30T23:06:21.626Z,86.93
2018-03-30T23:08:50.754Z,86.77
2018-03-30T23:11:19.891Z,87.04
2018-03-30T23:13:48.222Z,87.04
2018-03-30T23:16:16.606Z,87.29
2018-03-30T23:18:45.719Z,87.16
2018-03-30T23:21:14.847Z,86.98
2018-03-30T23:23:43.207Z,86.90
2018-03-30T23:26:11.578Z,86.95
2018-03-30T23:28:39.909Z,86.71
2018-03-30T23:31:08.371Z,86.71
2018-03-30T23:33:36.694Z,86.71
2018-03-30T23:36:06.003Z,86.69
2018-03-30T23:38:34.374Z,86.58
2018-03-30T23:41:03.495Z,86.52
2018-03-30T23:43:31.878Z,86.48
2018-03-30T23:46:00.614Z,86.33
2018-03-30T23:48:28.946Z,86.29
2018-03-30T23:50:57.313Z,85.95
2018-03-30T23:53:25.673Z,86.80
2018-03-30T23:55:54.029Z,87.17
2018-03-30T23:58:22.386Z,87.17
